sensor_id;sensor_type;location;lat;lon;timestamp;P1;durP1;ratioP1;P2;durP2;ratioP2
83417;SDS011;73351;0.000;0.000;2023-11-19T00:02:15;8.90;;;5.80;;
83417;SDS011;73351;0.000;0.000;2023-11-19T00:04:45;10.60;;;5.20;;
83417;SDS011;73351;0.000;0.000;2023-11-19T00:07:16;8.90;;;5.40;;
83417;SDS011;73351;0.000;0.000;2023-11-19T00:09:46;18.50;;;5.90;;
83417;SDS011;73351;0.000;0.000;2023-11-19T00:12:17;8.10;;;5.60;;
83417;SDS011;73351;0.000;0.000;2023-11-19T00:14:47;8.80;;;5.70;;
83417;SDS011;73351;0.000;0.000;2023-11-19T00:17:17;12.80;;;6.60;;
83417;SDS011;73351;0.000;0.000;2023-11-19T00:19:47;7.50;;;5.50;;
83417;SDS011;73351;0.000;0.000;2023-11-19T00:22:18;9.80;;;5.60;;
83417;SDS011;73351;0.000;0.000;2023-11-19T00:24:49;9.00;;;5.50;;
83417;SDS011;73351;0.000;0.000;2023-11-19T00:27:19;10.00;;;5.40;;
83417;SDS011;73351;0.000;0.000;2023-11-19T00:29:49;9.60;;;5.80;;
83417;SDS011;73351;0.000;0.000;2023-11-19T00:32:19;9.40;;;5.90;;
83417;SDS011;73351;0.000;0.000;2023-11-19T00:34:49;7.40;;;4.90;;
83417;SDS011;73351;0.000;0.000;2023-11-19T00:37:19;7.60;;;4.80;;
83417;SDS011;73351;0.000;0.000;2023-11-19T00:39:50;7.10;;;5.70;;
83417;SDS011;73351;0.000;0.000;2023-11-19T00:42:20;7.70;;;5.30;;
83417;SDS011;73351;0.000;0.000;2023-11-19T00:44:50;8.60;;;5.50;;
83417;SDS011;73351;0.000;0.000;2023-11-19T00:47:20;8.00;;;5.80;;
83417;SDS011;73351;0.000;0.000;2023-11-19T00:49:50;6.80;;;5.20;;
83417;SDS011;73351;0.000;0.000;2023-11-19T00:52:20;6.80;;;5.10;;
83417;SDS011;73351;0.000;0.000;2023-11-19T00:54:50;8.70;;;5.40;;
83417;SDS011;73351;0.000;0.000;2023-11-19T00:57:21;7.90;;;5.30;;
83417;SDS011;73351;0.000;0.000;2023-11-19T00:59:51;7.10;;;5.30;;
83417;SDS011;73351;0.000;0.000;2023-11-19T01:02:21;7.10;;;5.20;;
83417;SDS011;73351;0.000;0.000;2023-11-19T01:04:51;8.40;;;5.40;;
83417;SDS011;73351;0.000;0.000;2023-11-19T01:07:23;6.60;;;5.20;;
83417;SDS011;73351;0.000;0.000;2023-11-19T01:09:54;8.10;;;5.10;;
83417;SDS011;73351;0.000;0.000;2023-11-19T01:12:24;6.80;;;5.20;;
83417;SDS011;73351;0.000;0.000;2023-11-19T01:14:54;8.30;;;4.90;;
83417;SDS011;73351;0.000;0.000;2023-11-19T01:17:25;6.70;;;5.20;;
83417;SDS011;73351;0.000;0.000;2023-11-19T01:19:55;7.30;;;4.60;;
83417;SDS011;73351;0.000;0.000;2023-11-19T01:22:25;7.10;;;4.90;;
83417;SDS011;73351;0.000;0.000;2023-11-19T01:24:55;6.70;;;5.10;;
83417;SDS011;73351;0.000;0.000;2023-11-19T01:27:25;6.50;;;5.00;;
83417;SDS011;73351;0.000;0.000;2023-11-19T01:29:55;6.90;;;5.00;;
83417;SDS011;73351;0.000;0.000;2023-11-19T01:32:26;6.40;;;4.80;;
83417;SDS011;73351;0.000;0.000;2023-11-19T01:34:56;6.10;;;4.70;;
83417;SDS011;73351;0.000;0.000;2023-11-19T01:37:26;8.80;;;5.10;;
83417;SDS011;73351;0.000;0.000;2023-11-19T01:39:56;7.20;;;5.30;;
83417;SDS011;73351;0.000;0.000;2023-11-19T01:42:26;6.30;;;4.90;;
83417;SDS011;73351;0.000;0.000;2023-11-19T01:44:58;5.80;;;4.60;;
83417;SDS011;73351;0.000;0.000;2023-11-19T01:47:29;6.30;;;4.20;;
83417;SDS011;73351;0.000;0.000;2023-11-19T01:49:59;6.40;;;5.00;;
83417;SDS011;73351;0.000;0.000;2023-11-19T01:52:33;7.60;;;5.00;;
83417;SDS011;73351;0.000;0.000;2023-11-19T01:55:05;6.90;;;5.00;;
83417;SDS011;73351;0.000;0.000;2023-11-19T01:57:36;6.10;;;4.90;;
83417;SDS011;73351;0.000;0.000;2023-11-19T02:00:09;6.80;;;4.30;;
83417;SDS011;73351;0.000;0.000;2023-11-19T02:02:41;7.60;;;4.50;;
83417;SDS011;73351;0.000;0.000;2023-11-19T02:05:13;5.90;;;4.30;;
83417;SDS011;73351;0.000;0.000;2023-11-19T02:07:43;6.10;;;5.30;;
83417;SDS011;73351;0.000;0.000;2023-11-19T02:10:14;6.90;;;5.30;;
83417;SDS011;73351;0.000;0.000;2023-11-19T02:12:46;6.10;;;4.60;;
83417;SDS011;73351;0.000;0.000;2023-11-19T02:15:16;7.70;;;4.60;;
83417;SDS011;73351;0.000;0.000;2023-11-19T02:17:47;6.80;;;5.30;;
83417;SDS011;73351;0.000;0.000;2023-11-19T02:20:17;6.30;;;4.50;;
83417;SDS011;73351;0.000;0.000;2023-11-19T02:22:47;6.50;;;5.20;;
83417;SDS011;73351;0.000;0.000;2023-11-19T02:25:19;8.60;;;4.20;;
83417;SDS011;73351;0.000;0.000;2023-11-19T02:27:52;6.40;;;5.40;;
83417;SDS011;73351;0.000;0.000;2023-11-19T02:30:24;6.40;;;5.30;;
83417;SDS011;73351;0.000;0.000;2023-11-19T02:32:55;6.20;;;4.40;;
83417;SDS011;73351;0.000;0.000;2023-11-19T02:35:28;6.00;;;4.40;;
83417;SDS011;73351;0.000;0.000;2023-11-19T02:37:58;5.90;;;4.60;;
83417;SDS011;73351;0.000;0.000;2023-11-19T02:40:30;7.00;;;4.60;;
83417;SDS011;73351;0.000;0.000;2023-11-19T02:43:00;7.50;;;4.20;;
83417;SDS011;73351;0.000;0.000;2023-11-19T02:45:32;5.90;;;4.60;;
83417;SDS011;73351;0.000;0.000;2023-11-19T02:48:03;6.20;;;4.30;;
83417;SDS011;73351;0.000;0.000;2023-11-19T02:50:34;5.70;;;4.30;;
83417;SDS011;73351;0.000;0.000;2023-11-19T02:53:04;6.30;;;4.80;;
83417;SDS011;73351;0.000;0.000;2023-11-19T02:55:34;5.80;;;4.80;;
83417;SDS011;73351;0.000;0.000;2023-11-19T02:58:05;7.10;;;4.40;;
83417;SDS011;73351;0.000;0.000;2023-11-19T03:00:47;9.00;;;4.10;;
83417;SDS011;73351;0.000;0.000;2023-11-19T03:03:24;6.10;;;5.10;;
83417;SDS011;73351;0.000;0.000;2023-11-19T03:05:58;6.30;;;5.00;;
83417;SDS011;73351;0.000;0.000;2023-11-19T03:08:32;5.30;;;4.40;;
83417;SDS011;73351;0.000;0.000;2023-11-19T03:11:03;5.60;;;4.40;;
83417;SDS011;73351;0.000;0.000;2023-11-19T03:13:34;5.70;;;4.10;;
83417;SDS011;73351;0.000;0.000;2023-11-19T03:16:04;6.50;;;4.40;;
83417;SDS011;73351;0.000;0.000;2023-11-19T03:18:35;6.30;;;4.40;;
83417;SDS011;73351;0.000;0.000;2023-11-19T03:21:06;6.60;;;4.30;;
83417;SDS011;73351;0.000;0.000;2023-11-19T03:23:36;5.80;;;4.50;;
83417;SDS011;73351;0.000;0.000;2023-11-19T03:26:07;5.80;;;4.40;;
83417;SDS011;73351;0.000;0.000;2023-11-19T03:28:37;5.20;;;4.20;;
83417;SDS011;73351;0.000;0.000;2023-11-19T03:31:07;7.50;;;4.10;;
83417;SDS011;73351;0.000;0.000;2023-11-19T03:33:37;6.00;;;4.40;;
83417;SDS011;73351;0.000;0.000;2023-11-19T03:36:08;5.00;;;4.30;;
83417;SDS011;73351;0.000;0.000;2023-11-19T03:38:39;6.10;;;4.20;;
83417;SDS011;73351;0.000;0.000;2023-11-19T03:41:13;5.90;;;4.30;;
83417;SDS011;73351;0.000;0.000;2023-11-19T03:43:44;5.10;;;4.40;;
83417;SDS011;73351;0.000;0.000;2023-11-19T03:46:18;6.30;;;4.70;;
83417;SDS011;73351;0.000;0.000;2023-11-19T03:48:49;5.90;;;4.60;;
83417;SDS011;73351;0.000;0.000;2023-11-19T03:51:19;5.50;;;4.40;;
83417;SDS011;73351;0.000;0.000;2023-11-19T03:53:49;5.70;;;4.30;;
83417;SDS011;73351;0.000;0.000;2023-11-19T03:56:20;6.70;;;4.80;;
83417;SDS011;73351;0.000;0.000;2023-11-19T03:58:50;5.20;;;4.00;;
83417;SDS011;73351;0.000;0.000;2023-11-19T04:01:20;6.90;;;4.70;;
83417;SDS011;73351;0.000;0.000;2023-11-19T04:03:50;5.60;;;4.70;;
83417;SDS011;73351;0.000;0.000;2023-11-19T04:06:20;5.00;;;4.10;;
83417;SDS011;73351;0.000;0.000;2023-11-19T04:08:50;5.90;;;4.50;;
83417;SDS011;73351;0.000;0.000;2023-11-19T04:11:20;5.30;;;4.80;;
83417;SDS011;73351;0.000;0.000;2023-11-19T04:13:50;6.00;;;4.20;;
83417;SDS011;73351;0.000;0.000;2023-11-19T04:16:25;5.50;;;4.10;;
83417;SDS011;73351;0.000;0.000;2023-11-19T04:18:56;5.10;;;3.90;;
83417;SDS011;73351;0.000;0.000;2023-11-19T04:21:26;5.30;;;4.40;;
83417;SDS011;73351;0.000;0.000;2023-11-19T04:23:56;6.20;;;4.10;;
83417;SDS011;73351;0.000;0.000;2023-11-19T04:26:26;6.70;;;4.50;;
83417;SDS011;73351;0.000;0.000;2023-11-19T04:28:58;4.80;;;4.20;;
83417;SDS011;73351;0.000;0.000;2023-11-19T04:31:30;6.50;;;4.40;;
83417;SDS011;73351;0.000;0.000;2023-11-19T04:34:00;5.20;;;3.90;;
83417;SDS011;73351;0.000;0.000;2023-11-19T04:36:30;5.40;;;4.10;;
83417;SDS011;73351;0.000;0.000;2023-11-19T04:39:00;5.40;;;4.10;;
83417;SDS011;73351;0.000;0.000;2023-11-19T04:41:30;5.50;;;4.10;;
83417;SDS011;73351;0.000;0.000;2023-11-19T04:44:00;6.00;;;4.20;;
83417;SDS011;73351;0.000;0.000;2023-11-19T04:46:30;4.90;;;3.80;;
83417;SDS011;73351;0.000;0.000;2023-11-19T04:49:00;6.60;;;4.10;;
83417;SDS011;73351;0.000;0.000;2023-11-19T04:51:31;5.40;;;4.00;;
83417;SDS011;73351;0.000;0.000;2023-11-19T04:54:09;6.50;;;4.20;;
83417;SDS011;73351;0.000;0.000;2023-11-19T04:56:39;5.40;;;4.30;;
83417;SDS011;73351;0.000;0.000;2023-11-19T04:59:09;6.70;;;4.10;;
83417;SDS011;73351;0.000;0.000;2023-11-19T05:01:39;4.80;;;3.90;;
83417;SDS011;73351;0.000;0.000;2023-11-19T05:04:09;5.70;;;4.20;;
83417;SDS011;73351;0.000;0.000;2023-11-19T05:06:39;5.90;;;3.50;;
83417;SDS011;73351;0.000;0.000;2023-11-19T05:09:09;4.60;;;3.70;;
83417;SDS011;73351;0.000;0.000;2023-11-19T05:11:40;5.60;;;4.10;;
83417;SDS011;73351;0.000;0.000;2023-11-19T05:14:10;4.90;;;3.80;;
83417;SDS011;73351;0.000;0.000;2023-11-19T05:16:40;5.50;;;4.00;;
83417;SDS011;73351;0.000;0.000;2023-11-19T05:19:11;4.90;;;3.60;;
83417;SDS011;73351;0.000;0.000;2023-11-19T05:21:42;5.10;;;3.60;;
83417;SDS011;73351;0.000;0.000;2023-11-19T05:24:12;5.90;;;4.00;;
83417;SDS011;73351;0.000;0.000;2023-11-19T05:26:43;4.80;;;3.90;;
83417;SDS011;73351;0.000;0.000;2023-11-19T05:29:14;5.60;;;4.00;;
83417;SDS011;73351;0.000;0.000;2023-11-19T05:31:44;5.00;;;3.60;;
83417;SDS011;73351;0.000;0.000;2023-11-19T05:34:14;4.40;;;3.90;;
83417;SDS011;73351;0.000;0.000;2023-11-19T05:36:45;5.40;;;4.00;;
83417;SDS011;73351;0.000;0.000;2023-11-19T05:39:15;5.70;;;3.70;;
83417;SDS011;73351;0.000;0.000;2023-11-19T05:41:45;4.90;;;3.80;;
83417;SDS011;73351;0.000;0.000;2023-11-19T05:44:16;4.50;;;3.80;;
83417;SDS011;73351;0.000;0.000;2023-11-19T05:46:47;5.60;;;3.90;;
83417;SDS011;73351;0.000;0.000;2023-11-19T05:49:17;5.40;;;4.10;;
83417;SDS011;73351;0.000;0.000;2023-11-19T05:51:46;5.30;;;3.60;;
83417;SDS011;73351;0.000;0.000;2023-11-19T05:54:17;4.10;;;3.30;;
83417;SDS011;73351;0.000;0.000;2023-11-19T05:56:48;5.20;;;4.00;;
83417;SDS011;73351;0.000;0.000;2023-11-19T05:59:21;4.50;;;3.70;;
83417;SDS011;73351;0.000;0.000;2023-11-19T06:01:51;5.30;;;3.90;;
83417;SDS011;73351;0.000;0.000;2023-11-19T06:04:21;4.80;;;3.70;;
83417;SDS011;73351;0.000;0.000;2023-11-19T06:06:51;5.10;;;4.10;;
83417;SDS011;73351;0.000;0.000;2023-11-19T06:09:22;4.60;;;3.70;;
83417;SDS011;73351;0.000;0.000;2023-11-19T06:11:52;4.60;;;3.50;;
83417;SDS011;73351;0.000;0.000;2023-11-19T06:14:24;4.20;;;3.60;;
83417;SDS011;73351;0.000;0.000;2023-11-19T06:16:54;4.90;;;3.70;;
83417;SDS011;73351;0.000;0.000;2023-11-19T06:19:24;5.20;;;4.50;;
83417;SDS011;73351;0.000;0.000;2023-11-19T06:21:54;4.10;;;3.30;;
83417;SDS011;73351;0.000;0.000;2023-11-19T06:24:24;4.60;;;3.20;;
83417;SDS011;73351;0.000;0.000;2023-11-19T06:26:54;4.60;;;3.70;;
83417;SDS011;73351;0.000;0.000;2023-11-19T06:29:25;4.00;;;3.40;;
83417;SDS011;73351;0.000;0.000;2023-11-19T06:31:55;4.70;;;3.50;;
83417;SDS011;73351;0.000;0.000;2023-11-19T06:34:25;4.60;;;3.60;;
83417;SDS011;73351;0.000;0.000;2023-11-19T06:36:55;4.30;;;3.40;;
83417;SDS011;73351;0.000;0.000;2023-11-19T06:39:25;4.70;;;3.50;;
83417;SDS011;73351;0.000;0.000;2023-11-19T06:41:55;5.10;;;3.70;;
83417;SDS011;73351;0.000;0.000;2023-11-19T06:44:25;4.80;;;3.60;;
83417;SDS011;73351;0.000;0.000;2023-11-19T06:46:55;4.80;;;3.90;;
83417;SDS011;73351;0.000;0.000;2023-11-19T06:49:25;4.60;;;3.60;;
83417;SDS011;73351;0.000;0.000;2023-11-19T06:51:55;4.20;;;3.70;;
83417;SDS011;73351;0.000;0.000;2023-11-19T06:54:25;4.80;;;3.60;;
83417;SDS011;73351;0.000;0.000;2023-11-19T06:56:55;4.80;;;3.80;;
83417;SDS011;73351;0.000;0.000;2023-11-19T06:59:25;5.00;;;3.70;;
83417;SDS011;73351;0.000;0.000;2023-11-19T07:01:56;5.50;;;4.20;;
83417;SDS011;73351;0.000;0.000;2023-11-19T07:04:26;4.50;;;3.40;;
83417;SDS011;73351;0.000;0.000;2023-11-19T07:06:56;4.70;;;3.50;;
83417;SDS011;73351;0.000;0.000;2023-11-19T07:09:26;4.50;;;3.60;;
83417;SDS011;73351;0.000;0.000;2023-11-19T07:11:56;4.40;;;3.60;;
83417;SDS011;73351;0.000;0.000;2023-11-19T07:14:28;4.60;;;3.90;;
83417;SDS011;73351;0.000;0.000;2023-11-19T07:16:59;3.80;;;3.10;;
83417;SDS011;73351;0.000;0.000;2023-11-19T07:19:29;4.20;;;3.50;;
83417;SDS011;73351;0.000;0.000;2023-11-19T07:21:59;3.90;;;3.40;;
83417;SDS011;73351;0.000;0.000;2023-11-19T07:24:29;4.10;;;3.40;;
83417;SDS011;73351;0.000;0.000;2023-11-19T07:26:59;4.20;;;3.10;;
83417;SDS011;73351;0.000;0.000;2023-11-19T07:29:31;3.80;;;3.20;;
83417;SDS011;73351;0.000;0.000;2023-11-19T07:32:01;4.00;;;3.30;;
83417;SDS011;73351;0.000;0.000;2023-11-19T07:34:32;4.30;;;3.20;;
83417;SDS011;73351;0.000;0.000;2023-11-19T07:37:02;3.50;;;2.90;;
83417;SDS011;73351;0.000;0.000;2023-11-19T07:39:32;5.00;;;3.50;;
83417;SDS011;73351;0.000;0.000;2023-11-19T07:42:05;4.00;;;3.30;;
83417;SDS011;73351;0.000;0.000;2023-11-19T07:44:36;5.00;;;3.50;;
83417;SDS011;73351;0.000;0.000;2023-11-19T07:47:06;3.70;;;3.00;;
83417;SDS011;73351;0.000;0.000;2023-11-19T07:49:36;4.40;;;3.70;;
83417;SDS011;73351;0.000;0.000;2023-11-19T07:52:07;4.70;;;3.40;;
83417;SDS011;73351;0.000;0.000;2023-11-19T07:54:36;5.20;;;3.50;;
83417;SDS011;73351;0.000;0.000;2023-11-19T07:57:07;3.90;;;3.10;;
83417;SDS011;73351;0.000;0.000;2023-11-19T07:59:37;4.40;;;3.30;;
83417;SDS011;73351;0.000;0.000;2023-11-19T08:02:07;5.20;;;3.30;;
83417;SDS011;73351;0.000;0.000;2023-11-19T08:04:37;3.50;;;3.00;;
83417;SDS011;73351;0.000;0.000;2023-11-19T08:07:12;4.20;;;3.30;;
83417;SDS011;73351;0.000;0.000;2023-11-19T08:09:42;4.00;;;3.20;;
83417;SDS011;73351;0.000;0.000;2023-11-19T08:12:12;4.20;;;3.20;;
83417;SDS011;73351;0.000;0.000;2023-11-19T08:14:42;4.10;;;3.20;;
83417;SDS011;73351;0.000;0.000;2023-11-19T08:17:13;4.60;;;3.60;;
83417;SDS011;73351;0.000;0.000;2023-11-19T08:19:43;4.00;;;3.20;;
83417;SDS011;73351;0.000;0.000;2023-11-19T08:22:13;4.50;;;4.10;;
83417;SDS011;73351;0.000;0.000;2023-11-19T08:24:43;4.30;;;3.20;;
83417;SDS011;73351;0.000;0.000;2023-11-19T08:27:13;4.60;;;3.50;;
83417;SDS011;73351;0.000;0.000;2023-11-19T08:29:43;4.50;;;3.30;;
83417;SDS011;73351;0.000;0.000;2023-11-19T08:32:13;5.10;;;3.40;;
83417;SDS011;73351;0.000;0.000;2023-11-19T08:34:43;4.30;;;3.60;;
83417;SDS011;73351;0.000;0.000;2023-11-19T08:37:13;4.10;;;3.70;;
83417;SDS011;73351;0.000;0.000;2023-11-19T08:39:45;4.00;;;3.10;;
83417;SDS011;73351;0.000;0.000;2023-11-19T08:42:15;3.80;;;3.00;;
83417;SDS011;73351;0.000;0.000;2023-11-19T08:44:45;3.60;;;3.10;;
83417;SDS011;73351;0.000;0.000;2023-11-19T08:47:21;3.80;;;3.00;;
83417;SDS011;73351;0.000;0.000;2023-11-19T08:49:51;6.00;;;3.10;;
83417;SDS011;73351;0.000;0.000;2023-11-19T08:52:22;4.40;;;2.60;;
83417;SDS011;73351;0.000;0.000;2023-11-19T08:54:52;3.40;;;2.70;;
83417;SDS011;73351;0.000;0.000;2023-11-19T08:57:22;3.10;;;2.50;;
83417;SDS011;73351;0.000;0.000;2023-11-19T08:59:54;2.90;;;2.30;;
83417;SDS011;73351;0.000;0.000;2023-11-19T09:02:25;3.80;;;3.40;;
83417;SDS011;73351;0.000;0.000;2023-11-19T09:04:55;3.50;;;2.90;;
83417;SDS011;73351;0.000;0.000;2023-11-19T09:07:25;3.60;;;3.30;;
83417;SDS011;73351;0.000;0.000;2023-11-19T09:09:55;3.80;;;2.90;;
83417;SDS011;73351;0.000;0.000;2023-11-19T09:12:25;3.50;;;2.90;;
83417;SDS011;73351;0.000;0.000;2023-11-19T09:14:55;4.30;;;3.00;;
83417;SDS011;73351;0.000;0.000;2023-11-19T09:17:26;4.80;;;3.20;;
83417;SDS011;73351;0.000;0.000;2023-11-19T09:19:56;3.40;;;2.90;;
83417;SDS011;73351;0.000;0.000;2023-11-19T09:22:26;3.20;;;2.60;;
83417;SDS011;73351;0.000;0.000;2023-11-19T09:24:56;3.80;;;3.20;;
83417;SDS011;73351;0.000;0.000;2023-11-19T09:27:27;5.60;;;2.50;;
83417;SDS011;73351;0.000;0.000;2023-11-19T09:29:57;4.80;;;2.50;;
83417;SDS011;73351;0.000;0.000;2023-11-19T09:32:27;3.20;;;2.40;;
83417;SDS011;73351;0.000;0.000;2023-11-19T09:34:58;4.20;;;2.40;;
83417;SDS011;73351;0.000;0.000;2023-11-19T09:37:28;3.00;;;2.40;;
83417;SDS011;73351;0.000;0.000;2023-11-19T09:39:59;4.70;;;2.70;;
83417;SDS011;73351;0.000;0.000;2023-11-19T09:42:29;4.70;;;2.50;;
83417;SDS011;73351;0.000;0.000;2023-11-19T09:45:01;5.60;;;2.70;;
83417;SDS011;73351;0.000;0.000;2023-11-19T09:47:33;8.70;;;2.20;;
83417;SDS011;73351;0.000;0.000;2023-11-19T09:50:04;4.60;;;2.40;;
83417;SDS011;73351;0.000;0.000;2023-11-19T09:52:35;3.40;;;2.30;;
83417;SDS011;73351;0.000;0.000;2023-11-19T09:55:06;4.30;;;2.20;;
83417;SDS011;73351;0.000;0.000;2023-11-19T09:57:38;4.40;;;2.30;;
83417;SDS011;73351;0.000;0.000;2023-11-19T10:00:12;3.50;;;2.50;;
83417;SDS011;73351;0.000;0.000;2023-11-19T10:02:43;3.10;;;2.30;;
83417;SDS011;73351;0.000;0.000;2023-11-19T10:05:14;3.00;;;2.20;;
83417;SDS011;73351;0.000;0.000;2023-11-19T10:07:45;3.20;;;2.60;;
83417;SDS011;73351;0.000;0.000;2023-11-19T10:10:15;3.30;;;2.20;;
83417;SDS011;73351;0.000;0.000;2023-11-19T10:12:46;4.50;;;2.80;;
83417;SDS011;73351;0.000;0.000;2023-11-19T10:15:19;5.90;;;2.10;;
83417;SDS011;73351;0.000;0.000;2023-11-19T10:20:20;2.90;;;2.10;;
83417;SDS011;73351;0.000;0.000;2023-11-19T10:22:53;2.50;;;1.90;;
83417;SDS011;73351;0.000;0.000;2023-11-19T10:25:24;2.60;;;2.10;;
83417;SDS011;73351;0.000;0.000;2023-11-19T10:27:56;5.60;;;2.20;;
83417;SDS011;73351;0.000;0.000;2023-11-19T10:30:26;3.50;;;2.20;;
83417;SDS011;73351;0.000;0.000;2023-11-19T10:33:04;3.80;;;2.20;;
83417;SDS011;73351;0.000;0.000;2023-11-19T10:35:35;3.30;;;1.90;;
83417;SDS011;73351;0.000;0.000;2023-11-19T10:38:19;3.80;;;2.10;;
83417;SDS011;73351;0.000;0.000;2023-11-19T10:40:50;4.20;;;2.40;;
83417;SDS011;73351;0.000;0.000;2023-11-19T10:43:20;4.10;;;2.10;;
83417;SDS011;73351;0.000;0.000;2023-11-19T10:45:52;3.20;;;2.10;;
83417;SDS011;73351;0.000;0.000;2023-11-19T10:48:22;2.80;;;2.20;;
83417;SDS011;73351;0.000;0.000;2023-11-19T10:50:54;4.10;;;2.10;;
83417;SDS011;73351;0.000;0.000;2023-11-19T10:53:24;3.10;;;2.00;;
83417;SDS011;73351;0.000;0.000;2023-11-19T10:55:54;2.90;;;1.90;;
83417;SDS011;73351;0.000;0.000;2023-11-19T10:58:27;2.60;;;2.20;;
83417;SDS011;73351;0.000;0.000;2023-11-19T11:00:59;3.30;;;2.40;;
83417;SDS011;73351;0.000;0.000;2023-11-19T11:03:39;2.90;;;2.00;;
83417;SDS011;73351;0.000;0.000;2023-11-19T11:06:10;2.60;;;1.90;;
83417;SDS011;73351;0.000;0.000;2023-11-19T11:08:41;3.00;;;2.20;;
83417;SDS011;73351;0.000;0.000;2023-11-19T11:11:11;3.10;;;1.90;;
83417;SDS011;73351;0.000;0.000;2023-11-19T11:13:44;2.80;;;2.20;;
83417;SDS011;73351;0.000;0.000;2023-11-19T11:16:18;3.00;;;1.90;;
83417;SDS011;73351;0.000;0.000;2023-11-19T11:18:49;3.20;;;2.20;;
83417;SDS011;73351;0.000;0.000;2023-11-19T11:21:21;2.60;;;2.00;;
83417;SDS011;73351;0.000;0.000;2023-11-19T11:24:00;2.50;;;2.20;;
83417;SDS011;73351;0.000;0.000;2023-11-19T11:26:46;3.90;;;2.00;;
83417;SDS011;73351;0.000;0.000;2023-11-19T11:29:26;3.50;;;2.30;;
83417;SDS011;73351;0.000;0.000;2023-11-19T11:32:06;2.40;;;1.80;;
83417;SDS011;73351;0.000;0.000;2023-11-19T11:34:48;6.40;;;2.00;;
83417;SDS011;73351;0.000;0.000;2023-11-19T11:37:25;4.60;;;2.20;;
83417;SDS011;73351;0.000;0.000;2023-11-19T11:40:02;4.70;;;2.00;;
83417;SDS011;73351;0.000;0.000;2023-11-19T11:42:37;3.50;;;2.20;;
83417;SDS011;73351;0.000;0.000;2023-11-19T11:45:09;3.90;;;2.10;;
83417;SDS011;73351;0.000;0.000;2023-11-19T11:50:47;3.50;;;2.40;;
83417;SDS011;73351;0.000;0.000;2023-11-19T11:53:21;2.60;;;2.10;;
83417;SDS011;73351;0.000;0.000;2023-11-19T11:55:54;3.20;;;2.20;;
83417;SDS011;73351;0.000;0.000;2023-11-19T11:58:27;2.70;;;2.10;;
83417;SDS011;73351;0.000;0.000;2023-11-19T12:01:04;7.30;;;2.40;;
83417;SDS011;73351;0.000;0.000;2023-11-19T12:03:35;3.40;;;2.20;;
83417;SDS011;73351;0.000;0.000;2023-11-19T12:06:07;3.10;;;1.90;;
83417;SDS011;73351;0.000;0.000;2023-11-19T12:08:38;2.20;;;1.80;;
83417;SDS011;73351;0.000;0.000;2023-11-19T12:11:08;3.90;;;1.90;;
83417;SDS011;73351;0.000;0.000;2023-11-19T12:13:53;4.40;;;2.30;;
83417;SDS011;73351;0.000;0.000;2023-11-19T12:16:26;3.10;;;2.10;;
83417;SDS011;73351;0.000;0.000;2023-11-19T12:18:58;5.20;;;2.10;;
83417;SDS011;73351;0.000;0.000;2023-11-19T12:21:32;2.80;;;2.00;;
83417;SDS011;73351;0.000;0.000;2023-11-19T12:24:05;4.30;;;2.20;;
83417;SDS011;73351;0.000;0.000;2023-11-19T12:26:39;4.60;;;2.00;;
83417;SDS011;73351;0.000;0.000;2023-11-19T12:29:09;2.90;;;1.80;;
83417;SDS011;73351;0.000;0.000;2023-11-19T12:31:39;2.60;;;1.70;;
83417;SDS011;73351;0.000;0.000;2023-11-19T12:34:22;4.90;;;2.20;;
83417;SDS011;73351;0.000;0.000;2023-11-19T12:36:54;2.30;;;1.90;;
83417;SDS011;73351;0.000;0.000;2023-11-19T12:39:24;4.10;;;2.10;;
83417;SDS011;73351;0.000;0.000;2023-11-19T12:41:55;2.60;;;2.20;;
83417;SDS011;73351;0.000;0.000;2023-11-19T12:44:26;2.90;;;1.80;;
83417;SDS011;73351;0.000;0.000;2023-11-19T12:47:04;2.80;;;2.00;;
83417;SDS011;73351;0.000;0.000;2023-11-19T12:49:35;3.60;;;1.90;;
83417;SDS011;73351;0.000;0.000;2023-11-19T12:52:12;2.70;;;1.80;;
83417;SDS011;73351;0.000;0.000;2023-11-19T12:54:43;3.10;;;2.10;;
83417;SDS011;73351;0.000;0.000;2023-11-19T12:57:13;3.10;;;2.40;;
83417;SDS011;73351;0.000;0.000;2023-11-19T12:59:43;3.70;;;2.10;;
83417;SDS011;73351;0.000;0.000;2023-11-19T20:25:47;7.40;;;2.60;;
83417;SDS011;73351;0.000;0.000;2023-11-19T23:37:59;7.20;;;2.40;;
83417;SDS011;73351;0.000;0.000;2023-11-19T23:40:38;5.50;;;2.20;;
83417;SDS011;73351;0.000;0.000;2023-11-19T23:43:31;7.10;;;2.30;;
83417;SDS011;73351;0.000;0.000;2023-11-19T23:46:19;4.40;;;2.10;;
83417;SDS011;73351;0.000;0.000;2023-11-19T23:52:06;9.40;;;2.40;;
83417;SDS011;73351;0.000;0.000;2023-11-19T23:54:46;4.10;;;2.30;;
83417;SDS011;73351;0.000;0.000;2023-11-19T23:57:30;4.80;;;2.20;;
